sensor_id;sensor_type;location;lat;lon;timestamp;P1;durP1;ratioP1;P2;durP2;ratioP2
68714;SDS011;55692;53.356;10.030;2023-09-12T00:01:36;20.70;;;14.10;;
68714;SDS011;55692;53.356;10.030;2023-09-12T00:04:02;29.77;;;14.43;;
68714;SDS011;55692;53.356;10.030;2023-09-12T00:06:28;25.30;;;15.98;;
68714;SDS011;55692;53.356;10.030;2023-09-12T00:08:54;24.85;;;15.88;;
68714;SDS011;55692;53.356;10.030;2023-09-12T00:11:20;31.95;;;18.27;;
68714;SDS011;55692;53.356;10.030;2023-09-12T00:13:50;32.88;;;20.30;;
68714;SDS011;55692;53.356;10.030;2023-09-12T00:16:17;37.67;;;23.95;;
68714;SDS011;55692;53.356;10.030;2023-09-12T00:18:43;32.38;;;19.77;;
68714;SDS011;55692;53.356;10.030;2023-09-12T00:21:09;27.35;;;18.55;;
68714;SDS011;55692;53.356;10.030;2023-09-12T00:23:35;36.70;;;22.95;;
68714;SDS011;55692;53.356;10.030;2023-09-12T00:26:01;37.15;;;23.00;;
68714;SDS011;55692;53.356;10.030;2023-09-12T00:28:27;39.42;;;23.10;;
68714;SDS011;55692;53.356;10.030;2023-09-12T00:30:53;49.00;;;28.15;;
68714;SDS011;55692;53.356;10.030;2023-09-12T00:33:19;39.22;;;23.38;;
68714;SDS011;55692;53.356;10.030;2023-09-12T00:35:45;35.80;;;22.25;;
68714;SDS011;55692;53.356;10.030;2023-09-12T00:38:11;40.13;;;22.65;;
68714;SDS011;55692;53.356;10.030;2023-09-12T00:40:37;59.10;;;31.05;;
68714;SDS011;55692;53.356;10.030;2023-09-12T00:43:03;67.43;;;34.17;;
68714;SDS011;55692;53.356;10.030;2023-09-12T00:45:29;70.70;;;38.38;;
68714;SDS011;55692;53.356;10.030;2023-09-12T00:47:56;76.38;;;39.85;;
68714;SDS011;55692;53.356;10.030;2023-09-12T00:50:23;85.50;;;42.05;;
68714;SDS011;55692;53.356;10.030;2023-09-12T00:52:50;68.28;;;35.33;;
68714;SDS011;55692;53.356;10.030;2023-09-12T00:55:17;70.25;;;37.88;;
68714;SDS011;55692;53.356;10.030;2023-09-12T00:57:43;78.78;;;38.10;;
68714;SDS011;55692;53.356;10.030;2023-09-12T01:00:10;76.45;;;35.75;;
68714;SDS011;55692;53.356;10.030;2023-09-12T01:02:44;79.55;;;37.28;;
68714;SDS011;55692;53.356;10.030;2023-09-12T01:05:11;76.63;;;38.08;;
68714;SDS011;55692;53.356;10.030;2023-09-12T01:07:37;65.68;;;32.40;;
68714;SDS011;55692;53.356;10.030;2023-09-12T01:10:04;75.30;;;37.20;;
68714;SDS011;55692;53.356;10.030;2023-09-12T01:12:31;67.63;;;37.75;;
68714;SDS011;55692;53.356;10.030;2023-09-12T01:14:57;91.13;;;40.55;;
68714;SDS011;55692;53.356;10.030;2023-09-12T01:17:23;77.03;;;33.58;;
68714;SDS011;55692;53.356;10.030;2023-09-12T01:19:49;86.85;;;39.15;;
68714;SDS011;55692;53.356;10.030;2023-09-12T01:27:40;67.22;;;35.20;;
68714;SDS011;55692;53.356;10.030;2023-09-12T01:30:09;67.68;;;36.10;;
68714;SDS011;55692;53.356;10.030;2023-09-12T01:32:36;72.32;;;38.50;;
68714;SDS011;55692;53.356;10.030;2023-09-12T01:35:03;76.60;;;39.13;;
68714;SDS011;55692;53.356;10.030;2023-09-12T01:37:30;68.70;;;35.80;;
68714;SDS011;55692;53.356;10.030;2023-09-12T01:39:56;78.45;;;39.15;;
68714;SDS011;55692;53.356;10.030;2023-09-12T01:42:22;77.40;;;38.03;;
68714;SDS011;55692;53.356;10.030;2023-09-12T01:44:56;65.75;;;32.30;;
68714;SDS011;55692;53.356;10.030;2023-09-12T01:47:22;68.70;;;33.65;;
68714;SDS011;55692;53.356;10.030;2023-09-12T01:49:51;69.50;;;34.85;;
68714;SDS011;55692;53.356;10.030;2023-09-12T01:52:18;56.35;;;31.00;;
68714;SDS011;55692;53.356;10.030;2023-09-12T01:54:45;64.82;;;33.10;;
68714;SDS011;55692;53.356;10.030;2023-09-12T01:57:12;61.80;;;34.45;;
68714;SDS011;55692;53.356;10.030;2023-09-12T01:59:39;62.88;;;35.72;;
68714;SDS011;55692;53.356;10.030;2023-09-12T02:02:05;68.45;;;34.17;;
68714;SDS011;55692;53.356;10.030;2023-09-12T02:04:32;77.65;;;36.20;;
68714;SDS011;55692;53.356;10.030;2023-09-12T02:06:58;74.22;;;39.25;;
68714;SDS011;55692;53.356;10.030;2023-09-12T02:09:24;88.55;;;40.78;;
68714;SDS011;55692;53.356;10.030;2023-09-12T02:11:50;91.75;;;42.42;;
68714;SDS011;55692;53.356;10.030;2023-09-12T02:14:16;88.68;;;41.35;;
68714;SDS011;55692;53.356;10.030;2023-09-12T02:16:43;90.57;;;41.20;;
68714;SDS011;55692;53.356;10.030;2023-09-12T02:19:10;98.45;;;43.47;;
68714;SDS011;55692;53.356;10.030;2023-09-12T02:21:36;91.45;;;42.20;;
68714;SDS011;55692;53.356;10.030;2023-09-12T02:24:02;101.70;;;44.05;;
68714;SDS011;55692;53.356;10.030;2023-09-12T02:26:28;106.72;;;45.45;;
68714;SDS011;55692;53.356;10.030;2023-09-12T02:28:55;104.65;;;43.33;;
68714;SDS011;55692;53.356;10.030;2023-09-12T02:31:21;119.18;;;46.38;;
68714;SDS011;55692;53.356;10.030;2023-09-12T02:33:47;109.93;;;45.85;;
68714;SDS011;55692;53.356;10.030;2023-09-12T02:36:13;121.85;;;46.28;;
68714;SDS011;55692;53.356;10.030;2023-09-12T02:38:39;125.40;;;48.03;;
68714;SDS011;55692;53.356;10.030;2023-09-12T02:41:05;130.60;;;47.35;;
68714;SDS011;55692;53.356;10.030;2023-09-12T02:43:31;136.93;;;47.25;;
68714;SDS011;55692;53.356;10.030;2023-09-12T02:45:57;146.07;;;50.53;;
68714;SDS011;55692;53.356;10.030;2023-09-12T02:48:23;138.68;;;48.17;;
68714;SDS011;55692;53.356;10.030;2023-09-12T02:50:49;142.15;;;49.95;;
68714;SDS011;55692;53.356;10.030;2023-09-12T02:53:15;140.35;;;49.25;;
68714;SDS011;55692;53.356;10.030;2023-09-12T02:55:42;134.27;;;45.13;;
68714;SDS011;55692;53.356;10.030;2023-09-12T02:58:08;142.55;;;49.70;;
68714;SDS011;55692;53.356;10.030;2023-09-12T03:00:37;136.00;;;46.17;;
68714;SDS011;55692;53.356;10.030;2023-09-12T03:03:04;128.05;;;46.47;;
68714;SDS011;55692;53.356;10.030;2023-09-12T03:05:30;125.65;;;46.00;;
68714;SDS011;55692;53.356;10.030;2023-09-12T03:07:56;147.00;;;48.78;;
68714;SDS011;55692;53.356;10.030;2023-09-12T03:10:22;136.45;;;45.53;;
68714;SDS011;55692;53.356;10.030;2023-09-12T03:12:48;141.05;;;47.25;;
68714;SDS011;55692;53.356;10.030;2023-09-12T03:15:14;124.57;;;46.85;;
68714;SDS011;55692;53.356;10.030;2023-09-12T03:17:40;128.73;;;44.78;;
68714;SDS011;55692;53.356;10.030;2023-09-12T03:20:06;135.10;;;45.85;;
68714;SDS011;55692;53.356;10.030;2023-09-12T03:22:32;137.70;;;44.80;;
68714;SDS011;55692;53.356;10.030;2023-09-12T03:25:02;108.28;;;40.60;;
68714;SDS011;55692;53.356;10.030;2023-09-12T03:27:28;124.55;;;44.55;;
68714;SDS011;55692;53.356;10.030;2023-09-12T03:29:54;129.75;;;45.47;;
68714;SDS011;55692;53.356;10.030;2023-09-12T03:32:20;121.25;;;46.55;;
68714;SDS011;55692;53.356;10.030;2023-09-12T03:34:46;121.35;;;44.40;;
68714;SDS011;55692;53.356;10.030;2023-09-12T03:37:12;124.18;;;46.42;;
68714;SDS011;55692;53.356;10.030;2023-09-12T03:39:38;122.32;;;46.35;;
68714;SDS011;55692;53.356;10.030;2023-09-12T03:42:04;123.68;;;44.13;;
68714;SDS011;55692;53.356;10.030;2023-09-12T03:44:30;128.00;;;46.15;;
68714;SDS011;55692;53.356;10.030;2023-09-12T03:46:56;135.40;;;46.83;;
68714;SDS011;55692;53.356;10.030;2023-09-12T03:49:23;130.35;;;46.88;;
68714;SDS011;55692;53.356;10.030;2023-09-12T03:51:49;131.15;;;47.25;;
68714;SDS011;55692;53.356;10.030;2023-09-12T03:54:15;145.77;;;48.63;;
68714;SDS011;55692;53.356;10.030;2023-09-12T03:56:41;128.65;;;47.55;;
68714;SDS011;55692;53.356;10.030;2023-09-12T03:59:07;128.85;;;45.83;;
68714;SDS011;55692;53.356;10.030;2023-09-12T04:01:33;124.07;;;44.17;;
68714;SDS011;55692;53.356;10.030;2023-09-12T04:03:59;124.93;;;46.83;;
68714;SDS011;55692;53.356;10.030;2023-09-12T04:06:25;134.95;;;45.50;;
68714;SDS011;55692;53.356;10.030;2023-09-12T04:08:51;127.47;;;46.25;;
68714;SDS011;55692;53.356;10.030;2023-09-12T04:11:17;134.05;;;43.05;;
68714;SDS011;55692;53.356;10.030;2023-09-12T04:13:43;122.07;;;43.08;;
68714;SDS011;55692;53.356;10.030;2023-09-12T04:16:09;134.85;;;44.65;;
68714;SDS011;55692;53.356;10.030;2023-09-12T04:18:35;120.88;;;43.58;;
68714;SDS011;55692;53.356;10.030;2023-09-12T04:21:01;135.30;;;43.63;;
68714;SDS011;55692;53.356;10.030;2023-09-12T04:23:28;145.20;;;46.00;;
68714;SDS011;55692;53.356;10.030;2023-09-12T04:25:54;109.53;;;37.67;;
68714;SDS011;55692;53.356;10.030;2023-09-12T04:28:20;118.80;;;42.72;;
68714;SDS011;55692;53.356;10.030;2023-09-12T04:30:46;123.68;;;41.97;;
68714;SDS011;55692;53.356;10.030;2023-09-12T04:33:12;121.88;;;45.30;;
68714;SDS011;55692;53.356;10.030;2023-09-12T04:35:38;135.23;;;44.75;;
68714;SDS011;55692;53.356;10.030;2023-09-12T04:38:04;148.30;;;46.80;;
68714;SDS011;55692;53.356;10.030;2023-09-12T04:40:30;137.68;;;45.53;;
68714;SDS011;55692;53.356;10.030;2023-09-12T04:42:56;141.63;;;46.38;;
68714;SDS011;55692;53.356;10.030;2023-09-12T04:45:23;152.48;;;48.42;;
68714;SDS011;55692;53.356;10.030;2023-09-12T04:47:49;170.43;;;48.97;;
68714;SDS011;55692;53.356;10.030;2023-09-12T04:50:15;165.07;;;51.33;;
68714;SDS011;55692;53.356;10.030;2023-09-12T04:52:41;176.52;;;50.88;;
68714;SDS011;55692;53.356;10.030;2023-09-12T04:55:08;175.50;;;50.95;;
68714;SDS011;55692;53.356;10.030;2023-09-12T04:57:34;167.15;;;48.33;;
68714;SDS011;55692;53.356;10.030;2023-09-12T05:00:00;171.90;;;49.53;;
68714;SDS011;55692;53.356;10.030;2023-09-12T05:02:26;179.48;;;51.30;;
68714;SDS011;55692;53.356;10.030;2023-09-12T05:04:52;163.75;;;51.28;;
68714;SDS011;55692;53.356;10.030;2023-09-12T05:07:18;177.95;;;50.25;;
68714;SDS011;55692;53.356;10.030;2023-09-12T05:09:44;180.18;;;49.80;;
68714;SDS011;55692;53.356;10.030;2023-09-12T05:12:10;161.88;;;45.13;;
68714;SDS011;55692;53.356;10.030;2023-09-12T05:14:36;166.38;;;47.13;;
68714;SDS011;55692;53.356;10.030;2023-09-12T05:17:02;165.73;;;49.67;;
68714;SDS011;55692;53.356;10.030;2023-09-12T05:19:29;174.05;;;49.05;;
68714;SDS011;55692;53.356;10.030;2023-09-12T05:21:56;171.45;;;49.92;;
68714;SDS011;55692;53.356;10.030;2023-09-12T05:24:22;171.52;;;50.30;;
68714;SDS011;55692;53.356;10.030;2023-09-12T05:26:48;174.18;;;49.40;;
68714;SDS011;55692;53.356;10.030;2023-09-12T05:29:14;174.48;;;49.72;;
68714;SDS011;55692;53.356;10.030;2023-09-12T05:31:41;186.75;;;48.85;;
68714;SDS011;55692;53.356;10.030;2023-09-12T05:34:07;176.32;;;46.33;;
68714;SDS011;55692;53.356;10.030;2023-09-12T05:36:33;193.50;;;49.20;;
68714;SDS011;55692;53.356;10.030;2023-09-12T05:38:59;178.75;;;48.05;;
68714;SDS011;55692;53.356;10.030;2023-09-12T05:41:25;190.18;;;49.33;;
68714;SDS011;55692;53.356;10.030;2023-09-12T05:43:51;198.55;;;52.22;;
68714;SDS011;55692;53.356;10.030;2023-09-12T05:46:17;168.52;;;42.05;;
68714;SDS011;55692;53.356;10.030;2023-09-12T05:48:43;197.05;;;47.95;;
68714;SDS011;55692;53.356;10.030;2023-09-12T05:51:09;166.25;;;44.53;;
68714;SDS011;55692;53.356;10.030;2023-09-12T05:53:36;171.57;;;46.45;;
68714;SDS011;55692;53.356;10.030;2023-09-12T05:56:02;168.43;;;49.80;;
68714;SDS011;55692;53.356;10.030;2023-09-12T05:58:28;190.70;;;51.83;;
68714;SDS011;55692;53.356;10.030;2023-09-12T06:00:54;181.40;;;49.00;;
68714;SDS011;55692;53.356;10.030;2023-09-12T06:03:21;168.68;;;45.67;;
68714;SDS011;55692;53.356;10.030;2023-09-12T06:05:47;171.20;;;46.38;;
68714;SDS011;55692;53.356;10.030;2023-09-12T06:08:13;162.25;;;44.85;;
68714;SDS011;55692;53.356;10.030;2023-09-12T06:10:39;166.55;;;48.55;;
68714;SDS011;55692;53.356;10.030;2023-09-12T06:13:05;181.13;;;44.80;;
68714;SDS011;55692;53.356;10.030;2023-09-12T06:15:31;165.18;;;46.55;;
68714;SDS011;55692;53.356;10.030;2023-09-12T06:17:57;173.52;;;47.65;;
68714;SDS011;55692;53.356;10.030;2023-09-12T06:20:23;152.38;;;44.08;;
68714;SDS011;55692;53.356;10.030;2023-09-12T06:22:49;169.18;;;45.92;;
68714;SDS011;55692;53.356;10.030;2023-09-12T06:25:16;160.88;;;42.35;;
68714;SDS011;55692;53.356;10.030;2023-09-12T06:27:42;144.13;;;44.75;;
68714;SDS011;55692;53.356;10.030;2023-09-12T06:30:08;137.38;;;43.70;;
68714;SDS011;55692;53.356;10.030;2023-09-12T06:32:34;119.50;;;40.72;;
68714;SDS011;55692;53.356;10.030;2023-09-12T06:35:00;129.15;;;42.47;;
68714;SDS011;55692;53.356;10.030;2023-09-12T06:37:26;118.50;;;42.75;;
68714;SDS011;55692;53.356;10.030;2023-09-12T06:39:52;112.82;;;40.55;;
68714;SDS011;55692;53.356;10.030;2023-09-12T06:42:18;118.68;;;40.70;;
68714;SDS011;55692;53.356;10.030;2023-09-12T06:44:44;107.10;;;36.85;;
68714;SDS011;55692;53.356;10.030;2023-09-12T06:47:10;98.05;;;37.85;;
68714;SDS011;55692;53.356;10.030;2023-09-12T06:49:36;110.07;;;37.15;;
68714;SDS011;55692;53.356;10.030;2023-09-12T06:52:03;91.97;;;34.20;;
68714;SDS011;55692;53.356;10.030;2023-09-12T06:54:29;87.18;;;34.47;;
68714;SDS011;55692;53.356;10.030;2023-09-12T06:56:55;95.03;;;34.65;;
68714;SDS011;55692;53.356;10.030;2023-09-12T06:59:21;94.93;;;35.63;;
68714;SDS011;55692;53.356;10.030;2023-09-12T07:01:47;89.32;;;34.35;;
68714;SDS011;55692;53.356;10.030;2023-09-12T07:04:13;94.00;;;35.50;;
68714;SDS011;55692;53.356;10.030;2023-09-12T07:06:39;91.00;;;34.40;;
68714;SDS011;55692;53.356;10.030;2023-09-12T07:09:05;84.60;;;32.45;;
68714;SDS011;55692;53.356;10.030;2023-09-12T07:11:33;79.97;;;31.98;;
68714;SDS011;55692;53.356;10.030;2023-09-12T07:13:59;75.30;;;28.63;;
68714;SDS011;55692;53.356;10.030;2023-09-12T07:16:25;79.90;;;31.20;;
68714;SDS011;55692;53.356;10.030;2023-09-12T07:18:51;86.53;;;32.15;;
68714;SDS011;55692;53.356;10.030;2023-09-12T07:21:17;83.85;;;31.23;;
68714;SDS011;55692;53.356;10.030;2023-09-12T07:23:43;89.20;;;32.00;;
68714;SDS011;55692;53.356;10.030;2023-09-12T07:26:13;84.47;;;31.65;;
68714;SDS011;55692;53.356;10.030;2023-09-12T07:28:39;86.47;;;32.80;;
68714;SDS011;55692;53.356;10.030;2023-09-12T07:31:05;80.32;;;32.63;;
68714;SDS011;55692;53.356;10.030;2023-09-12T07:33:31;83.93;;;31.50;;
68714;SDS011;55692;53.356;10.030;2023-09-12T07:35:57;80.25;;;31.98;;
68714;SDS011;55692;53.356;10.030;2023-09-12T07:38:24;74.03;;;30.70;;
68714;SDS011;55692;53.356;10.030;2023-09-12T07:40:51;70.63;;;30.50;;
68714;SDS011;55692;53.356;10.030;2023-09-12T07:43:17;67.55;;;29.27;;
68714;SDS011;55692;53.356;10.030;2023-09-12T07:45:43;57.72;;;26.48;;
68714;SDS011;55692;53.356;10.030;2023-09-12T07:48:09;61.35;;;28.85;;
68714;SDS011;55692;53.356;10.030;2023-09-12T07:50:38;66.47;;;30.70;;
68714;SDS011;55692;53.356;10.030;2023-09-12T07:53:05;61.53;;;28.98;;
68714;SDS011;55692;53.356;10.030;2023-09-12T07:55:31;49.67;;;26.38;;
68714;SDS011;55692;53.356;10.030;2023-09-12T07:58:01;52.28;;;24.98;;
68714;SDS011;55692;53.356;10.030;2023-09-12T08:00:27;46.13;;;26.58;;
68714;SDS011;55692;53.356;10.030;2023-09-12T08:02:53;51.30;;;27.35;;
68714;SDS011;55692;53.356;10.030;2023-09-12T08:05:19;52.83;;;25.60;;
68714;SDS011;55692;53.356;10.030;2023-09-12T08:07:45;51.03;;;27.33;;
68714;SDS011;55692;53.356;10.030;2023-09-12T08:10:11;45.42;;;25.20;;
68714;SDS011;55692;53.356;10.030;2023-09-12T08:12:37;48.25;;;26.35;;
68714;SDS011;55692;53.356;10.030;2023-09-12T08:15:04;42.45;;;24.83;;
68714;SDS011;55692;53.356;10.030;2023-09-12T08:17:30;48.47;;;26.67;;
68714;SDS011;55692;53.356;10.030;2023-09-12T08:19:56;42.65;;;23.95;;
68714;SDS011;55692;53.356;10.030;2023-09-12T08:22:22;45.95;;;24.08;;
68714;SDS011;55692;53.356;10.030;2023-09-12T08:24:48;50.95;;;26.00;;
68714;SDS011;55692;53.356;10.030;2023-09-12T08:27:14;49.88;;;26.65;;
68714;SDS011;55692;53.356;10.030;2023-09-12T08:29:41;54.67;;;24.98;;
68714;SDS011;55692;53.356;10.030;2023-09-12T08:32:08;54.38;;;26.00;;
68714;SDS011;55692;53.356;10.030;2023-09-12T08:34:34;55.20;;;28.55;;
68714;SDS011;55692;53.356;10.030;2023-09-12T08:37:00;57.10;;;26.80;;
68714;SDS011;55692;53.356;10.030;2023-09-12T08:39:27;59.05;;;28.88;;
68714;SDS011;55692;53.356;10.030;2023-09-12T08:41:53;54.22;;;27.45;;
68714;SDS011;55692;53.356;10.030;2023-09-12T08:44:20;50.22;;;27.20;;
68714;SDS011;55692;53.356;10.030;2023-09-12T08:46:47;48.63;;;26.17;;
68714;SDS011;55692;53.356;10.030;2023-09-12T08:49:13;40.00;;;23.95;;
68714;SDS011;55692;53.356;10.030;2023-09-12T08:51:40;37.88;;;22.75;;
68714;SDS011;55692;53.356;10.030;2023-09-12T08:54:07;39.03;;;22.92;;
68714;SDS011;55692;53.356;10.030;2023-09-12T08:56:35;34.83;;;22.10;;
68714;SDS011;55692;53.356;10.030;2023-09-12T08:59:01;32.75;;;20.92;;
68714;SDS011;55692;53.356;10.030;2023-09-12T09:01:30;32.53;;;19.98;;
68714;SDS011;55692;53.356;10.030;2023-09-12T09:03:56;30.73;;;19.20;;
68714;SDS011;55692;53.356;10.030;2023-09-12T09:06:22;29.98;;;19.52;;
68714;SDS011;55692;53.356;10.030;2023-09-12T09:08:49;31.30;;;20.33;;
68714;SDS011;55692;53.356;10.030;2023-09-12T09:11:18;29.10;;;17.92;;
68714;SDS011;55692;53.356;10.030;2023-09-12T09:13:44;26.77;;;18.15;;
68714;SDS011;55692;53.356;10.030;2023-09-12T09:21:18;26.60;;;18.27;;
68714;SDS011;55692;53.356;10.030;2023-09-12T09:23:45;30.70;;;19.67;;
68714;SDS011;55692;53.356;10.030;2023-09-12T09:26:14;27.90;;;19.13;;
68714;SDS011;55692;53.356;10.030;2023-09-12T09:28:40;26.35;;;18.27;;
68714;SDS011;55692;53.356;10.030;2023-09-12T09:31:09;27.58;;;18.40;;
68714;SDS011;55692;53.356;10.030;2023-09-12T09:33:36;26.60;;;17.77;;
68714;SDS011;55692;53.356;10.030;2023-09-12T09:36:03;23.98;;;17.10;;
68714;SDS011;55692;53.356;10.030;2023-09-12T09:38:29;25.95;;;17.95;;
68714;SDS011;55692;53.356;10.030;2023-09-12T09:40:55;27.77;;;18.35;;
68714;SDS011;55692;53.356;10.030;2023-09-12T09:43:22;29.95;;;18.48;;
68714;SDS011;55692;53.356;10.030;2023-09-12T09:45:49;22.92;;;16.83;;
68714;SDS011;55692;53.356;10.030;2023-09-12T09:48:23;25.38;;;17.83;;
68714;SDS011;55692;53.356;10.030;2023-09-12T09:50:49;29.88;;;18.00;;
68714;SDS011;55692;53.356;10.030;2023-09-12T09:53:16;27.63;;;17.55;;
68714;SDS011;55692;53.356;10.030;2023-09-12T09:55:42;23.48;;;16.48;;
68714;SDS011;55692;53.356;10.030;2023-09-12T09:58:08;25.92;;;17.88;;
68714;SDS011;55692;53.356;10.030;2023-09-12T10:00:41;27.30;;;18.17;;
68714;SDS011;55692;53.356;10.030;2023-09-12T10:03:07;23.55;;;16.85;;
68714;SDS011;55692;53.356;10.030;2023-09-12T10:05:34;23.13;;;16.10;;
68714;SDS011;55692;53.356;10.030;2023-09-12T10:08:03;24.98;;;17.10;;
68714;SDS011;55692;53.356;10.030;2023-09-12T10:10:31;23.65;;;15.93;;
68714;SDS011;55692;53.356;10.030;2023-09-12T10:12:59;22.35;;;16.20;;
68714;SDS011;55692;53.356;10.030;2023-09-12T10:15:29;23.13;;;15.80;;
68714;SDS011;55692;53.356;10.030;2023-09-12T10:17:59;23.30;;;16.15;;
68714;SDS011;55692;53.356;10.030;2023-09-12T10:20:35;24.27;;;16.08;;
68714;SDS011;55692;53.356;10.030;2023-09-12T10:23:06;27.48;;;17.13;;
68714;SDS011;55692;53.356;10.030;2023-09-12T10:25:36;24.27;;;15.73;;
68714;SDS011;55692;53.356;10.030;2023-09-12T10:28:05;19.88;;;14.48;;
68714;SDS011;55692;53.356;10.030;2023-09-12T10:30:32;21.05;;;14.45;;
68714;SDS011;55692;53.356;10.030;2023-09-12T10:33:00;22.33;;;14.23;;
68714;SDS011;55692;53.356;10.030;2023-09-12T10:35:29;18.88;;;13.27;;
68714;SDS011;55692;53.356;10.030;2023-09-12T10:37:57;20.60;;;14.05;;
68714;SDS011;55692;53.356;10.030;2023-09-12T10:40:25;20.83;;;12.32;;
68714;SDS011;55692;53.356;10.030;2023-09-12T10:42:52;19.00;;;14.02;;
68714;SDS011;55692;53.356;10.030;2023-09-12T10:45:19;20.55;;;12.77;;
68714;SDS011;55692;53.356;10.030;2023-09-12T10:47:46;20.13;;;12.63;;
68714;SDS011;55692;53.356;10.030;2023-09-12T10:50:12;19.92;;;12.52;;
68714;SDS011;55692;53.356;10.030;2023-09-12T10:52:38;17.02;;;11.43;;
68714;SDS011;55692;53.356;10.030;2023-09-12T10:55:06;17.58;;;12.35;;
68714;SDS011;55692;53.356;10.030;2023-09-12T10:57:32;18.00;;;12.98;;
68714;SDS011;55692;53.356;10.030;2023-09-12T11:02:28;14.70;;;11.50;;
68714;SDS011;55692;53.356;10.030;2023-09-12T11:04:54;14.10;;;10.43;;
68714;SDS011;55692;53.356;10.030;2023-09-12T11:07:30;13.95;;;9.98;;
68714;SDS011;55692;53.356;10.030;2023-09-12T11:12:45;17.25;;;10.10;;
68714;SDS011;55692;53.356;10.030;2023-09-12T11:15:12;13.45;;;10.20;;
68714;SDS011;55692;53.356;10.030;2023-09-12T11:17:40;16.60;;;10.57;;
68714;SDS011;55692;53.356;10.030;2023-09-12T11:20:07;17.48;;;10.70;;
68714;SDS011;55692;53.356;10.030;2023-09-12T11:22:37;19.70;;;11.60;;
68714;SDS011;55692;53.356;10.030;2023-09-12T11:30:23;17.80;;;11.55;;
68714;SDS011;55692;53.356;10.030;2023-09-12T11:32:50;17.27;;;11.98;;
68714;SDS011;55692;53.356;10.030;2023-09-12T11:35:17;23.58;;;12.80;;
68714;SDS011;55692;53.356;10.030;2023-09-12T11:37:48;17.25;;;11.18;;
68714;SDS011;55692;53.356;10.030;2023-09-12T11:42:41;18.33;;;11.60;;
68714;SDS011;55692;53.356;10.030;2023-09-12T11:45:08;17.80;;;11.68;;
68714;SDS011;55692;53.356;10.030;2023-09-12T11:47:34;18.33;;;11.88;;
68714;SDS011;55692;53.356;10.030;2023-09-12T11:50:00;14.55;;;11.18;;
68714;SDS011;55692;53.356;10.030;2023-09-12T11:52:26;19.05;;;12.77;;
68714;SDS011;55692;53.356;10.030;2023-09-12T11:54:53;17.17;;;12.25;;
68714;SDS011;55692;53.356;10.030;2023-09-12T11:57:19;16.38;;;11.05;;
68714;SDS011;55692;53.356;10.030;2023-09-12T11:59:45;14.68;;;10.93;;
68714;SDS011;55692;53.356;10.030;2023-09-12T12:02:13;14.68;;;10.68;;
68714;SDS011;55692;53.356;10.030;2023-09-12T12:04:39;18.20;;;10.65;;
68714;SDS011;55692;53.356;10.030;2023-09-12T12:07:05;16.83;;;11.65;;
68714;SDS011;55692;53.356;10.030;2023-09-12T12:09:32;20.15;;;13.63;;
68714;SDS011;55692;53.356;10.030;2023-09-12T12:12:14;16.27;;;11.93;;
68714;SDS011;55692;53.356;10.030;2023-09-12T12:14:40;18.88;;;11.40;;
68714;SDS011;55692;53.356;10.030;2023-09-12T12:17:09;17.05;;;11.40;;
68714;SDS011;55692;53.356;10.030;2023-09-12T12:19:36;15.57;;;10.98;;
68714;SDS011;55692;53.356;10.030;2023-09-12T12:22:02;17.30;;;11.98;;
68714;SDS011;55692;53.356;10.030;2023-09-12T12:24:40;14.95;;;10.02;;
68714;SDS011;55692;53.356;10.030;2023-09-12T12:27:07;16.20;;;10.68;;
68714;SDS011;55692;53.356;10.030;2023-09-12T12:29:35;15.07;;;10.95;;
68714;SDS011;55692;53.356;10.030;2023-09-12T12:32:01;15.23;;;10.77;;
68714;SDS011;55692;53.356;10.030;2023-09-12T12:34:29;13.27;;;9.82;;
68714;SDS011;55692;53.356;10.030;2023-09-12T12:36:55;14.93;;;10.77;;
68714;SDS011;55692;53.356;10.030;2023-09-12T12:39:21;15.52;;;10.48;;
68714;SDS011;55692;53.356;10.030;2023-09-12T12:41:47;17.17;;;10.80;;
68714;SDS011;55692;53.356;10.030;2023-09-12T12:44:14;14.10;;;10.38;;
68714;SDS011;55692;53.356;10.030;2023-09-12T12:46:53;16.58;;;11.02;;
68714;SDS011;55692;53.356;10.030;2023-09-12T12:49:20;15.32;;;11.20;;
68714;SDS011;55692;53.356;10.030;2023-09-12T12:51:47;12.88;;;10.20;;
68714;SDS011;55692;53.356;10.030;2023-09-12T12:54:13;12.95;;;10.27;;
68714;SDS011;55692;53.356;10.030;2023-09-12T12:56:39;16.08;;;10.82;;
68714;SDS011;55692;53.356;10.030;2023-09-12T12:59:06;15.30;;;10.27;;
68714;SDS011;55692;53.356;10.030;2023-09-12T13:01:34;17.02;;;10.27;;
68714;SDS011;55692;53.356;10.030;2023-09-12T13:04:00;14.10;;;9.95;;
68714;SDS011;55692;53.356;10.030;2023-09-12T13:06:26;15.88;;;10.57;;
68714;SDS011;55692;53.356;10.030;2023-09-12T13:08:54;12.02;;;9.20;;
68714;SDS011;55692;53.356;10.030;2023-09-12T13:11:22;13.63;;;10.55;;
68714;SDS011;55692;53.356;10.030;2023-09-12T13:13:49;10.68;;;8.63;;
68714;SDS011;55692;53.356;10.030;2023-09-12T13:16:15;14.93;;;8.88;;
68714;SDS011;55692;53.356;10.030;2023-09-12T13:18:41;11.30;;;9.30;;
68714;SDS011;55692;53.356;10.030;2023-09-12T13:21:07;12.55;;;9.35;;
68714;SDS011;55692;53.356;10.030;2023-09-12T13:23:35;14.05;;;9.35;;
68714;SDS011;55692;53.356;10.030;2023-09-12T13:26:01;13.38;;;8.38;;
68714;SDS011;55692;53.356;10.030;2023-09-12T13:28:28;10.90;;;8.05;;
68714;SDS011;55692;53.356;10.030;2023-09-12T13:30:54;10.88;;;8.45;;
68714;SDS011;55692;53.356;10.030;2023-09-12T13:33:20;10.40;;;7.90;;
68714;SDS011;55692;53.356;10.030;2023-09-12T13:35:48;11.68;;;8.07;;
68714;SDS011;55692;53.356;10.030;2023-09-12T13:38:14;10.15;;;7.40;;
68714;SDS011;55692;53.356;10.030;2023-09-12T13:40:42;9.75;;;6.70;;
68714;SDS011;55692;53.356;10.030;2023-09-12T13:43:08;10.30;;;7.28;;
68714;SDS011;55692;53.356;10.030;2023-09-12T13:45:34;8.48;;;6.78;;
68714;SDS011;55692;53.356;10.030;2023-09-12T13:48:01;9.80;;;6.63;;
68714;SDS011;55692;53.356;10.030;2023-09-12T13:50:28;10.18;;;7.22;;
68714;SDS011;55692;53.356;10.030;2023-09-12T13:52:54;11.48;;;7.38;;
68714;SDS011;55692;53.356;10.030;2023-09-12T13:55:24;13.32;;;7.13;;
68714;SDS011;55692;53.356;10.030;2023-09-12T13:57:50;11.43;;;8.18;;
68714;SDS011;55692;53.356;10.030;2023-09-12T14:00:17;9.93;;;7.60;;
68714;SDS011;55692;53.356;10.030;2023-09-12T14:02:43;12.52;;;8.70;;
68714;SDS011;55692;53.356;10.030;2023-09-12T14:05:10;14.93;;;8.40;;
68714;SDS011;55692;53.356;10.030;2023-09-12T14:07:36;12.50;;;8.23;;
68714;SDS011;55692;53.356;10.030;2023-09-12T14:10:03;11.13;;;7.78;;
68714;SDS011;55692;53.356;10.030;2023-09-12T14:12:29;10.98;;;7.82;;
68714;SDS011;55692;53.356;10.030;2023-09-12T14:14:55;13.55;;;8.07;;
68714;SDS011;55692;53.356;10.030;2023-09-12T14:17:21;15.43;;;9.02;;
68714;SDS011;55692;53.356;10.030;2023-09-12T14:19:47;14.15;;;8.48;;
68714;SDS011;55692;53.356;10.030;2023-09-12T14:22:13;8.90;;;7.43;;
68714;SDS011;55692;53.356;10.030;2023-09-12T14:24:40;12.73;;;7.50;;
68714;SDS011;55692;53.356;10.030;2023-09-12T14:27:06;7.43;;;6.22;;